Provo Municipal Airport

Airport
ICAO code: 
KPVU
Summary
ICAO Region: 
NAM
Territory: 
Location: 
Provo Municipal Airport,
Coordinates: 
Aerial View: 
40° 13' 6.655" N, 111° 43' 14.931" W
Metar
Observation
KPVU 021456Z 18003KT 10SM CLR M04/M05 A3034 RMK AO2 SLP295 T10391050 51009
Station
Provo, Provo Municipal Airport
Date/Time
2021-12-02 14:56:00
Wind direction
180°
Wind speed
03 kts
Lowest cloud amount
n/a
Temperature
-3.9°C
Dew point
-5°C
Humidity
92%
Weather condition
n/a

Description

Provo Municipal Airport is a public use airport located 3 km west of the central business district of Provo, a city in Utah County, Utah.

Climatology

Dry-summer continental climate (Köppen climate classification Dsa) a relatively rare form of the continental climate where a region experiences dry summers and wet winters. There are four distinct seasons. Both summer and winter are long, with hot, dry summers and cold, snowy winters separated by brief spring and fall transition periods. Spring is the wettest season, while summer is usually the driest. Large seasonal temperature variation

Runways

Designator Length Width Surface Rops
18/36 2016 46 ASP Yes/Yes
13/31 2621 46 ASP Yes/Yes
Airport map: 
Aerial View: 

SKYbrary Partners:

Safety knowledge contributed by: